Time;durP1;ratioP1;P1;durP2;ratioP2;P2;SDS_P1;SDS_P2;PMS_P1;PMS_P2;Temp;Humidity;BMP_temperature;BMP_pressure;BME280_temperature;BME280_humidity;BME280_pressure;Samples;Min_cycle;Max_cycle;Signal;HPM_P1;HPM_P2
2021/12/19 00:00:28;;;;;;;;;40.50;30.50;;;;;9.89;66.83;103056.16;5062549;27;45323;-75
2021/12/19 00:11:08;;;;;;;;;4.00;0.00;;;;;9.82;65.60;103048.88;5069983;27;44839;-72
2021/12/19 00:13:34;;;;;;;;;32.75;26.25;;;;;9.73;65.46;103038.94;5062365;28;45287;-72
2021/12/19 00:16:03;;;;;;;;;35.75;30.75;;;;;8.97;65.25;102909.31;5058584;28;45521;-72
2021/12/19 00:18:32;;;;;;;;;28.00;22.75;;;;;9.53;65.37;103025.00;5067373;27;45452;-73
2021/12/19 00:20:57;;;;;;;;;34.75;28.25;;;;;9.44;65.79;103004.56;5069472;28;45760;-75
2021/12/19 00:23:23;;;;;;;;;37.25;29.75;;;;;9.55;65.76;103036.44;5056053;28;45565;-72
2021/12/19 00:25:53;;;;;;;;;31.00;28.75;;;;;9.32;65.80;103022.34;5078668;27;45415;-73
2021/12/19 00:28:19;;;;;;;;;38.25;28.75;;;;;9.06;66.32;103010.72;5074471;27;45403;-74
2021/12/19 00:30:46;;;;;;;;;37.75;31.25;;;;;9.03;68.36;103027.19;5072740;28;45625;-74
2021/12/19 00:33:15;;;;;;;;;33.00;29.75;;;;;8.97;67.73;103024.31;5075495;28;45342;-74
2021/12/19 00:35:40;;;;;;;;;34.25;25.25;;;;;8.98;67.07;103025.19;5059069;28;45533;-71
2021/12/19 00:38:07;;;;;;;;;36.75;29.00;;;;;8.90;67.38;103024.84;5058958;28;45548;-71
2021/12/19 00:40:33;;;;;;;;;46.00;33.25;;;;;8.51;68.04;102969.94;5053100;28;45510;-71
2021/12/19 00:43:21;;;;;;;;;36.75;26.50;;;;;8.63;67.64;102993.13;5053809;28;45370;-74
2021/12/19 00:45:49;;;;;;;;;34.00;29.75;;;;;8.56;68.51;103001.50;5054207;28;45346;-72
2021/12/19 00:48:15;;;;;;;;;29.25;23.25;;;;;8.66;67.88;103021.97;5057172;28;45493;-72
2021/12/19 00:50:41;;;;;;;;;37.50;30.00;;;;;8.08;67.94;102944.41;5054008;28;45377;-75
2021/12/19 00:53:06;;;;;;;;;32.75;26.00;;;;;8.27;69.22;102987.94;5053628;28;45428;-73
2021/12/19 00:55:32;;;;;;;;;31.25;26.00;;;;;8.43;69.09;103005.25;5037214;28;45597;-72
2021/12/19 00:57:58;;;;;;;;;26.75;22.50;;;;;8.34;68.72;102982.19;5055335;28;46453;-73
2021/12/19 01:00:27;;;;;;;;;31.75;22.75;;;;;8.51;68.92;102993.44;5035463;28;45823;-73
2021/12/19 01:02:57;;;;;;;;;31.75;26.00;;;;;8.43;68.79;102976.53;5053810;28;45509;-74
2021/12/19 01:05:23;;;;;;;;;42.50;28.75;;;;;8.46;68.60;102984.50;5068951;28;45586;-74
2021/12/19 01:07:49;;;;;;;;;32.75;28.00;;;;;8.51;69.11;103001.28;5058110;28;45480;-74
2021/12/19 01:10:15;;;;;;;;;32.75;25.25;;;;;8.61;70.11;103002.59;5060890;28;45502;-77
2021/12/19 01:12:44;;;;;;;;;28.25;24.50;;;;;8.40;68.98;102966.84;5083881;27;45447;-75
2021/12/19 01:15:13;;;;;;;;;30.50;26.00;;;;;8.73;69.90;103004.88;5076363;27;45554;-75
2021/12/19 01:17:39;;;;;;;;;29.50;25.75;;;;;8.81;68.89;103001.81;5076992;27;46513;-73
2021/12/19 01:20:11;;;;;;;;;27.00;23.50;;;;;8.60;68.41;102972.09;5077341;28;45715;-73
2021/12/19 01:22:37;;;;;;;;;22.50;18.25;;;;;8.84;68.94;102996.72;5081154;27;45458;-73
2021/12/19 01:25:03;;;;;;;;;40.75;29.50;;;;;8.82;68.32;103003.56;5079062;27;45385;-71
2021/12/19 01:27:29;;;;;;;;;34.75;27.50;;;;;8.74;68.83;102994.50;5076280;27;46053;-73
2021/12/19 01:29:55;;;;;;;;;32.25;24.25;;;;;8.71;68.42;102999.59;5076437;27;45719;-72
2021/12/19 01:32:20;;;;;;;;;41.25;29.75;;;;;8.68;69.16;102999.44;5074359;27;45597;-72
2021/12/19 01:34:46;;;;;;;;;36.75;29.00;;;;;8.64;68.97;102995.81;5096104;27;45494;-72
2021/12/19 01:37:13;;;;;;;;;30.00;21.75;;;;;8.68;68.89;102995.13;5080199;27;45667;-72
2021/12/19 01:39:39;;;;;;;;;30.75;22.25;;;;;8.70;68.72;102993.47;5099513;27;45421;-73
2021/12/19 01:42:09;;;;;;;;;25.50;20.50;;;;;8.65;68.82;102973.19;5099236;27;45340;-71
2021/12/19 01:44:35;;;;;;;;;27.25;24.00;;;;;8.81;68.68;102991.34;5082683;27;45996;-70
2021/12/19 01:47:01;;;;;;;;;31.25;22.25;;;;;8.79;68.56;102990.38;5100283;27;45396;-71
2021/12/19 01:49:27;;;;;;;;;31.50;26.00;;;;;8.85;68.74;102993.28;5091999;27;45413;-72
2021/12/19 01:51:53;;;;;;;;;34.75;26.25;;;;;8.76;68.83;102971.97;5078036;28;45370;-71
2021/12/19 01:54:19;;;;;;;;;28.25;21.00;;;;;8.89;68.14;102987.34;5077996;28;45358;-71
2021/12/19 01:56:45;;;;;;;;;32.25;24.00;;;;;8.86;68.62;102995.06;5076094;27;45396;-72
2021/12/19 01:59:11;;;;;;;;;33.50;27.00;;;;;8.78;68.85;102990.31;5077641;28;45396;-72
2021/12/19 02:01:43;;;;;;;;;27.75;23.75;;;;;8.66;68.89;102970.66;5097433;27;45408;-71
2021/12/19 02:04:13;;;;;;;;;30.75;24.50;;;;;8.75;68.86;102984.94;5102020;27;45353;-71
2021/12/19 02:06:39;;;;;;;;;36.75;31.25;;;;;8.61;69.09;102993.06;5100400;27;45794;-73
2021/12/19 02:09:06;;;;;;;;;34.50;27.75;;;;;8.56;69.74;102976.25;5098618;27;45400;-73
2021/12/19 02:11:37;;;;;;;;;31.25;25.75;;;;;8.57;69.48;102977.19;5101321;27;45393;-72
2021/12/19 02:14:05;;;;;;;;;32.00;25.00;;;;;8.54;69.22;102970.06;5100599;27;45477;-74
2021/12/19 02:16:31;;;;;;;;;27.25;23.00;;;;;8.58;69.32;102982.44;5098037;27;45338;-71
2021/12/19 02:18:58;;;;;;;;;31.50;25.75;;;;;8.51;69.34;102975.16;5101968;27;45527;-71
2021/12/19 02:21:24;;;;;;;;;17.50;16.00;;;;;8.38;69.52;102963.22;5078740;27;45753;-72
2021/12/19 02:23:50;;;;;;;;;30.25;25.50;;;;;8.37;69.95;102964.03;5097551;27;45354;-72
2021/12/19 02:26:19;;;;;;;;;28.75;26.00;;;;;8.32;70.38;102972.47;5088253;27;45474;-73
2021/12/19 02:28:45;;;;;;;;;28.50;24.50;;;;;7.98;70.21;102916.97;5074040;27;45428;-73
2021/12/19 02:31:11;;;;;;;;;31.50;24.25;;;;;8.07;70.09;102947.84;5062117;28;45398;-71
2021/12/19 02:33:41;;;;;;;;;30.50;26.25;;;;;8.17;70.58;102964.81;5076831;27;45276;-74
2021/12/19 02:36:45;;;;;;;;;29.25;23.75;;;;;8.02;70.77;102952.84;5076008;27;45452;-71
2021/12/19 02:49:45;;;;;;;;;26.75;22.25;;;;;7.89;71.70;102936.50;5075121;28;45377;-70
2021/12/19 02:52:12;;;;;;;;;25.25;18.25;;;;;7.92;71.45;102939.25;5094215;27;45685;-73
2021/12/19 02:54:38;;;;;;;;;30.75;23.50;;;;;7.93;71.80;102933.25;5096226;27;45648;-73
2021/12/19 02:57:04;;;;;;;;;27.00;21.50;;;;;8.00;71.74;102948.38;5077557;27;46661;-72
2021/12/19 02:59:32;;;;;;;;;25.75;23.25;;;;;8.03;71.70;102944.16;5095514;27;45408;-72
2021/12/19 03:01:58;;;;;;;;;20.50;17.00;;;;;8.05;71.62;102944.25;5096291;27;45338;-73
2021/12/19 03:04:24;;;;;;;;;29.25;22.50;;;;;7.98;71.39;102942.19;5096248;27;45788;-71
2021/12/19 03:06:50;;;;;;;;;25.50;16.25;;;;;7.98;71.49;102942.19;5097549;27;45830;-71
2021/12/19 03:10:04;;;;;;;;;24.75;19.00;;;;;7.96;71.72;102930.75;5095823;27;45585;-73
2021/12/19 03:20:20;;;;;;;;;30.25;24.75;;;;;7.93;71.30;102908.03;5075546;27;45382;-72
2021/12/19 03:22:45;;;;;;;;;28.50;23.75;;;;;8.04;71.76;102927.72;5076210;27;45816;-71
2021/12/19 03:25:11;;;;;;;;;31.50;20.25;;;;;8.12;71.32;102919.34;5077372;27;45559;-71
2021/12/19 03:27:36;;;;;;;;;27.00;22.00;;;;;8.07;70.94;102911.31;5073869;28;46216;-73
2021/12/19 03:30:04;;;;;;;;;25.25;19.25;;;;;8.16;71.11;102910.81;5077083;27;45432;-71
2021/12/19 03:32:30;;;;;;;;;24.75;19.00;;;;;8.10;70.39;102890.56;5095498;27;45350;-74
2021/12/19 03:34:55;;;;;;;;;29.50;24.25;;;;;8.10;70.90;102905.31;5064900;27;45370;-72
2021/12/19 03:37:21;;;;;;;;;28.25;22.00;;;;;8.17;70.89;102923.06;5054555;28;45585;-73
2021/12/19 03:42:30;;;;;;;;;26.50;20.25;;;;;7.99;70.96;102889.16;5077548;27;45682;-71
2021/12/19 03:44:57;;;;;;;;;25.25;22.75;;;;;8.04;71.07;102904.22;5075923;28;45419;-72
2021/12/19 03:47:22;;;;;;;;;35.25;26.25;;;;;8.19;70.39;102922.31;5074565;28;46170;-72
2021/12/19 03:49:48;;;;;;;;;25.25;24.50;;;;;8.15;70.78;102920.38;5074780;27;45469;-71
2021/12/19 03:52:14;;;;;;;;;27.00;21.50;;;;;8.16;70.76;102908.19;5075510;28;45350;-71
2021/12/19 03:54:39;;;;;;;;;25.00;20.50;;;;;8.31;70.52;102932.44;5066042;28;45496;-74
2021/12/19 03:57:05;;;;;;;;;22.25;19.50;;;;;8.29;70.19;102921.03;5086305;27;45545;-71
2021/12/19 03:59:31;;;;;;;;;24.75;20.50;;;;;8.41;70.43;102931.16;5093250;27;45365;-74
2021/12/19 04:01:57;;;;;;;;;18.00;15.25;;;;;8.21;70.01;102888.41;5071801;28;45367;-73
2021/12/19 04:04:23;;;;;;;;;26.75;18.75;;;;;8.50;69.87;102931.59;5075324;28;45465;-73
2021/12/19 04:06:48;;;;;;;;;25.00;20.25;;;;;8.36;69.81;102912.63;5078693;28;45440;-73
2021/12/19 04:09:15;;;;;;;;;25.25;24.50;;;;;8.33;69.78;102908.97;5079058;27;45529;-73
2021/12/19 04:11:41;;;;;;;;;22.50;18.00;;;;;8.34;69.62;102922.13;5072387;28;45489;-72
2021/12/19 04:14:06;;;;;;;;;21.25;20.00;;;;;8.15;69.21;102903.81;5054207;28;45601;-72
2021/12/19 04:16:32;;;;;;;;;21.00;17.50;;;;;8.13;69.53;102911.56;5056854;28;45528;-73
2021/12/19 04:18:57;;;;;;;;;26.00;22.00;;;;;8.13;70.04;102916.78;5053798;28;45275;-72
2021/12/19 04:21:23;;;;;;;;;27.00;19.50;;;;;8.05;70.29;102911.22;5054452;28;45544;-72
2021/12/19 04:23:49;;;;;;;;;19.25;15.25;;;;;8.07;70.27;102908.69;5071903;27;45353;-74
2021/12/19 04:26:15;;;;;;;;;26.00;20.25;;;;;8.17;70.45;102916.13;5095317;27;46353;-73
2021/12/19 04:28:40;;;;;;;;;26.00;20.00;;;;;8.08;70.29;102890.47;5094677;27;45444;-74
2021/12/19 04:31:06;;;;;;;;;20.00;17.50;;;;;8.24;69.77;102904.25;5089464;27;45478;-72
2021/12/19 04:33:34;;;;;;;;;22.25;18.75;;;;;8.33;70.26;102907.28;5067252;27;45423;-74
2021/12/19 04:36:00;;;;;;;;;23.00;17.25;;;;;8.27;69.56;102888.72;5093650;27;45483;-75
2021/12/19 04:57:06;;;;;;;;;23.75;20.25;;;;;8.45;69.40;102867.81;5076951;27;45942;-72
2021/12/19 05:16:00;;;;;;;;;23.75;16.50;;;;;8.05;70.94;102884.22;5091138;27;45383;-72
2021/12/19 05:18:30;;;;;;;;;26.25;17.50;;;;;8.00;71.02;102884.00;5097311;27;45739;-72
2021/12/19 05:21:03;;;;;;;;;13.50;13.50;;;;;7.90;71.61;102876.59;5096755;27;45296;-71
2021/12/19 05:25:57;;;;;;;;;21.50;18.00;;;;;7.83;71.62;102877.09;5061185;28;45561;-71
2021/12/19 05:28:23;;;;;;;;;20.00;15.00;;;;;7.85;71.75;102867.63;5076032;27;46286;-72
2021/12/19 05:30:49;;;;;;;;;19.75;15.00;;;;;7.90;71.46;102845.28;5064915;28;45375;-73
2021/12/19 05:33:15;;;;;;;;;17.50;12.50;;;;;8.09;71.12;102867.88;5056706;28;45352;-71
2021/12/19 05:46:43;;;;;;;;;11.75;10.75;;;;;7.77;71.19;102867.25;5101174;27;45452;-72
2021/12/19 05:49:10;;;;;;;;;15.75;12.25;;;;;7.69;71.10;102875.53;5096824;27;46421;-71
2021/12/19 05:51:37;;;;;;;;;17.00;11.25;;;;;7.51;71.46;102870.34;5073839;27;45579;-70
2021/12/19 05:54:04;;;;;;;;;13.25;13.25;;;;;7.44;72.16;102867.41;5053362;28;45741;-70
2021/12/19 05:56:30;;;;;;;;;17.25;12.25;;;;;7.37;72.25;102843.59;5076703;27;45611;-71
2021/12/19 05:58:56;;;;;;;;;13.50;11.00;;;;;7.57;72.33;102874.16;5075466;28;45456;-70
2021/12/19 06:01:22;;;;;;;;;12.75;11.00;;;;;7.60;72.50;102870.78;5080519;28;45319;-72
2021/12/19 06:03:47;;;;;;;;;12.25;11.00;;;;;7.63;72.26;102874.41;5081115;27;45469;-71
2021/12/19 06:06:13;;;;;;;;;12.50;10.00;;;;;7.64;72.44;102865.78;5062260;28;45435;-73
2021/12/19 06:08:38;;;;;;;;;14.50;11.50;;;;;7.70;72.35;102866.91;5060493;28;45399;-71
2021/12/19 06:11:04;;;;;;;;;12.75;10.00;;;;;7.76;72.25;102864.56;5081949;27;45497;-72
2021/12/19 06:13:29;;;;;;;;;14.00;12.50;;;;;7.65;72.23;102841.50;5084350;27;45481;-72
2021/12/19 06:15:57;;;;;;;;;18.00;11.50;;;;;7.84;71.69;102861.50;5057054;28;45475;-71
2021/12/19 06:18:23;;;;;;;;;16.00;13.00;;;;;7.83;71.83;102851.91;5059608;28;45614;-73
2021/12/19 06:20:49;;;;;;;;;17.00;11.25;;;;;7.88;71.42;102869.47;5076379;27;45431;-73
2021/12/19 06:23:14;;;;;;;;;14.50;12.25;;;;;7.85;71.43;102868.53;5077469;28;45466;-72
2021/12/19 06:25:45;;;;;;;;;11.75;10.00;;;;;7.64;72.42;102842.31;5080708;27;45462;-71
2021/12/19 06:28:26;;;;;;;;;12.00;11.25;;;;;7.58;72.06;102828.09;5081713;28;45914;-74
2021/12/19 06:30:52;;;;;;;;;15.25;12.00;;;;;7.48;71.62;102829.38;5063588;28;45390;-72
2021/12/19 06:33:18;;;;;;;;;17.75;11.75;;;;;7.43;71.83;102846.50;5076895;27;45480;-73
2021/12/19 06:35:44;;;;;;;;;17.00;15.25;;;;;7.23;72.24;102828.16;5072055;27;45583;-71
2021/12/19 06:38:09;;;;;;;;;12.50;10.00;;;;;7.27;72.68;102842.25;5073636;28;47287;-73
2021/12/19 06:40:35;;;;;;;;;13.75;11.00;;;;;7.14;72.76;102824.19;5077570;27;45862;-73
2021/12/19 06:43:02;;;;;;;;;11.25;9.75;;;;;7.32;72.95;102858.13;5076370;28;45319;-73
2021/12/19 06:45:28;;;;;;;;;15.50;10.75;;;;;7.27;73.71;102847.47;5064820;28;45493;-73
2021/12/19 06:47:53;;;;;;;;;15.50;13.00;;;;;7.26;73.21;102848.28;5057244;28;45932;-75
2021/12/19 06:50:20;;;;;;;;;14.75;12.75;;;;;7.24;73.79;102852.53;5058984;27;45534;-75
2021/12/19 06:52:47;;;;;;;;;13.50;10.50;;;;;7.24;73.57;102852.53;5076339;27;45481;-73
2021/12/19 06:55:14;;;;;;;;;18.00;11.50;;;;;7.25;73.52;102848.22;5077198;27;45806;-75
2021/12/19 06:57:40;;;;;;;;;17.00;15.50;;;;;7.21;73.83;102850.66;5080453;28;46235;-75
2021/12/19 07:00:09;;;;;;;;;15.50;11.75;;;;;7.14;73.39;102850.25;5059557;28;45826;-74
2021/12/19 07:02:35;;;;;;;;;14.75;12.25;;;;;7.11;73.86;102861.44;5058026;27;45417;-73
2021/12/19 07:05:01;;;;;;;;;9.75;7.00;;;;;7.01;73.96;102853.97;5075407;27;45774;-73
2021/12/19 07:07:27;;;;;;;;;11.00;11.00;;;;;6.96;74.03;102865.88;5075349;28;45857;-74
2021/12/19 07:09:52;;;;;;;;;12.25;12.25;;;;;6.95;74.21;102866.69;5075226;27;45565;-74
2021/12/19 07:12:19;;;;;;;;;12.75;12.50;;;;;6.80;74.27;102852.06;5074574;27;45299;-73
2021/12/19 07:14:45;;;;;;;;;12.25;7.25;;;;;6.71;75.03;102840.28;5075747;27;45403;-72
2021/12/19 07:17:11;;;;;;;;;11.00;9.50;;;;;6.82;74.48;102853.88;5075774;27;46419;-72
2021/12/19 07:19:37;;;;;;;;;10.25;9.00;;;;;6.88;74.62;102864.56;5098254;27;45421;-72
2021/12/19 07:22:03;;;;;;;;;13.25;11.25;;;;;6.72;74.47;102842.97;5096422;27;45743;-72
2021/12/19 07:24:28;;;;;;;;;14.50;10.00;;;;;6.77;74.93;102864.94;5077143;27;45336;-72
2021/12/19 07:26:54;;;;;;;;;16.00;13.75;;;;;6.77;74.61;102875.34;5095160;27;45449;-71
2021/12/19 07:29:20;;;;;;;;;12.00;12.00;;;;;6.57;75.27;102829.13;5094727;27;45653;-71
2021/12/19 07:31:45;;;;;;;;;10.75;9.00;;;;;6.72;75.52;102861.19;5094664;27;45426;-73
2021/12/19 07:34:11;;;;;;;;;10.25;8.50;;;;;6.70;74.83;102842.00;5067064;27;45533;-72
2021/12/19 07:36:47;;;;;;;;;17.50;11.50;;;;;6.79;74.50;102846.78;5068411;28;45342;-72
2021/12/19 07:39:26;;;;;;;;;10.25;9.25;;;;;6.84;74.40;102853.13;5069943;28;45922;-72
2021/12/19 07:41:52;;;;;;;;;11.00;9.00;;;;;6.69;74.44;102836.69;5075194;27;45318;-72
2021/12/19 07:44:18;;;;;;;;;7.75;7.50;;;;;6.77;74.13;102851.91;5078105;28;45232;-73
2021/12/19 07:46:44;;;;;;;;;9.50;8.00;;;;;6.76;74.49;102850.13;5076035;28;45497;-71
2021/12/19 07:49:12;;;;;;;;;12.00;7.00;;;;;6.75;74.69;102850.94;5056267;28;45417;-71
2021/12/19 07:51:37;;;;;;;;;9.75;9.00;;;;;6.81;74.67;102845.16;5075057;28;45370;-71
2021/12/19 07:54:03;;;;;;;;;16.25;10.00;;;;;6.71;74.39;102841.16;5074482;28;45735;-71
2021/12/19 07:56:28;;;;;;;;;9.75;5.75;;;;;6.72;74.22;102848.19;5090132;27;46191;-71
2021/12/19 07:58:54;;;;;;;;;13.00;12.25;;;;;6.72;74.81;102842.09;5054794;27;45403;-71
2021/12/19 08:01:19;;;;;;;;;15.00;13.25;;;;;6.74;75.14;102859.56;5055070;28;45713;-73
2021/12/19 08:03:45;;;;;;;;;12.00;10.00;;;;;6.77;75.11;102857.13;5054597;28;45385;-71
2021/12/19 08:06:11;;;;;;;;;12.00;9.25;;;;;6.68;74.68;102846.22;5058378;28;45470;-72
2021/12/19 08:08:36;;;;;;;;;13.50;10.25;;;;;6.77;74.43;102849.31;5039697;28;45346;-71
2021/12/19 08:13:47;;;;;;;;;10.50;9.00;;;;;6.65;74.23;102833.06;5097671;27;45713;-70
2021/12/19 08:16:13;;;;;;;;;9.00;9.00;;;;;6.79;74.26;102858.09;5099519;27;45471;-70
2021/12/19 08:18:38;;;;;;;;;12.50;11.75;;;;;6.75;74.29;102863.06;5100034;27;45374;-71
2021/12/19 08:21:05;;;;;;;;;15.00;12.75;;;;;6.64;74.70;102854.69;5101966;27;45255;-71
2021/12/19 08:23:32;;;;;;;;;15.50;9.25;;;;;6.53;74.04;102841.13;5091902;27;45504;-69
2021/12/19 08:25:58;;;;;;;;;16.25;13.00;;;;;6.62;74.50;102856.34;5079230;28;46232;-70
2021/12/19 08:28:23;;;;;;;;;13.25;11.75;;;;;6.60;73.84;102852.75;5075141;28;45449;-70
2021/12/19 08:30:50;;;;;;;;;12.50;9.50;;;;;6.51;73.78;102840.16;5074799;28;45594;-70
2021/12/19 08:33:16;;;;;;;;;11.75;10.75;;;;;6.48;74.16;102832.19;5081392;28;45347;-71
2021/12/19 08:35:42;;;;;;;;;16.75;15.00;;;;;6.65;73.93;102855.59;5083290;28;45339;-72
2021/12/19 08:38:07;;;;;;;;;15.50;11.25;;;;;6.42;73.74;102815.34;5080034;27;45463;-70
2021/12/19 08:40:34;;;;;;;;;16.75;11.25;;;;;6.33;74.32;102795.81;5086730;27;45565;-70
2021/12/19 08:43:00;;;;;;;;;16.25;13.00;;;;;6.63;73.79;102839.88;5095249;27;45725;-70
2021/12/19 08:45:26;;;;;;;;;15.00;12.50;;;;;6.63;73.36;102845.09;5095129;27;46013;-71
2021/12/19 08:47:52;;;;;;;;;21.00;13.00;;;;;6.64;73.53;102841.66;5097539;27;45424;-70
2021/12/19 08:50:18;;;;;;;;;14.75;14.00;;;;;6.68;73.60;102853.16;5094357;27;45727;-71
2021/12/19 08:52:45;;;;;;;;;18.75;14.50;;;;;6.60;74.14;102837.13;5076466;27;45575;-73
2021/12/19 08:55:11;;;;;;;;;16.75;13.50;;;;;6.68;73.64;102853.16;5086660;27;45365;-72
2021/12/19 08:57:43;;;;;;;;;14.75;12.25;;;;;6.71;73.88;102851.59;5078534;27;45553;-70
2021/12/19 09:00:11;;;;;;;;;14.50;10.00;;;;;6.71;73.95;102854.19;5074415;28;45353;-75
2021/12/19 09:02:46;;;;;;;;;16.00;14.00;;;;;6.59;73.38;102827.53;5073866;28;45347;-74
2021/12/19 09:05:12;;;;;;;;;14.50;12.50;;;;;6.78;73.50;102855.41;5075268;27;46230;-72
2021/12/19 09:07:38;;;;;;;;;9.50;9.50;;;;;6.85;73.37;102861.81;5090612;27;45687;-72
2021/12/19 09:10:05;;;;;;;;;10.75;9.00;;;;;6.86;73.76;102859.31;5094366;27;45370;-71
2021/12/19 09:12:31;;;;;;;;;13.00;11.25;;;;;6.98;72.97;102857.31;5094446;27;45433;-75
2021/12/19 09:14:58;;;;;;;;;9.00;9.00;;;;;7.01;72.71;102861.78;5094202;27;46579;-72
2021/12/19 09:17:24;;;;;;;;;14.25;9.25;;;;;6.82;73.01;102838.25;5095206;27;45346;-72
2021/12/19 09:19:50;;;;;;;;;13.25;13.25;;;;;6.90;72.88;102852.53;5098141;27;45414;-72
2021/12/19 09:22:15;;;;;;;;;13.75;11.25;;;;;6.99;72.90;102859.09;5095569;27;45605;-72
2021/12/19 09:24:41;;;;;;;;;17.50;10.25;;;;;6.84;72.79;102824.47;5095171;27;46126;-73
2021/12/19 09:27:09;;;;;;;;;12.00;9.50;;;;;6.84;72.39;102820.97;5097453;27;46159;-74
2021/12/19 09:29:35;;;;;;;;;13.50;11.50;;;;;6.97;72.56;102854.63;5073553;27;45718;-73
2021/12/19 09:32:01;;;;;;;;;12.25;11.00;;;;;6.98;72.97;102836.47;5063199;28;45376;-71
2021/12/19 09:34:28;;;;;;;;;11.50;9.00;;;;;6.99;72.78;102840.88;5084285;27;45713;-70
2021/12/19 09:36:55;;;;;;;;;14.00;10.75;;;;;7.07;72.66;102846.47;5079022;27;45557;-73
2021/12/19 09:39:22;;;;;;;;;17.00;12.00;;;;;7.15;72.45;102854.69;5082869;27;45509;-72
2021/12/19 09:41:54;;;;;;;;;15.25;13.00;;;;;7.03;72.23;102859.28;5082231;27;45474;-72
2021/12/19 09:44:20;;;;;;;;;12.75;10.00;;;;;6.99;72.07;102859.09;5077698;27;45850;-71
2021/12/19 09:46:46;;;;;;;;;15.25;14.00;;;;;6.99;72.82;102855.59;5080838;28;45415;-71
2021/12/19 09:49:15;;;;;;;;;15.00;12.75;;;;;6.93;72.86;102848.38;5080989;27;45239;-72
2021/12/19 09:51:41;;;;;;;;;15.50;11.75;;;;;6.76;72.89;102836.19;5078256;27;45402;-72
2021/12/19 09:54:09;;;;;;;;;10.50;9.25;;;;;6.76;74.95;102850.13;5076570;27;45570;-70
2021/12/19 09:56:35;;;;;;;;;15.00;14.25;;;;;6.92;73.26;102853.50;5080811;27;45336;-72
2021/12/19 09:59:12;;;;;;;;;20.00;15.50;;;;;6.86;74.12;102840.16;5079315;28;45401;-72
2021/12/19 10:01:39;;;;;;;;;19.75;14.50;;;;;6.72;73.27;102816.94;5077931;27;45712;-70
2021/12/19 10:04:27;;;;;;;;;16.00;13.25;;;;;6.92;73.51;102835.28;5083394;27;46758;-71
2021/12/19 10:07:24;;;;;;;;;18.25;13.75;;;;;6.80;73.44;102812.09;5096327;27;45618;-72
2021/12/19 10:10:12;;;;;;;;;37.25;32.75;;;;;6.92;74.61;102832.66;5083858;27;46106;-71
2021/12/19 10:15:16;;;;;;;;;21.00;17.50;;;;;7.02;73.99;102829.69;5075884;27;45449;-70
2021/12/19 10:17:43;;;;;;;;;22.00;16.50;;;;;7.01;74.71;102821.00;5079442;28;45282;-70
2021/12/19 10:20:16;;;;;;;;;17.00;14.50;;;;;7.09;74.15;102821.38;5076954;28;45354;-69
2021/12/19 10:22:44;;;;;;;;;22.50;17.00;;;;;7.11;73.89;102803.22;5079301;28;45396;-71
2021/12/19 10:25:18;;;;;;;;;23.75;17.00;;;;;7.27;73.58;102821.41;5064067;28;47746;-72
2021/12/19 10:27:56;;;;;;;;;23.75;21.00;;;;;7.27;73.22;102820.50;5084950;27;45504;-72
2021/12/19 10:34:22;;;;;;;;;13.75;13.75;;;;;7.23;73.05;102817.72;5111686;27;45417;-70
2021/12/19 10:36:48;;;;;;;;;15.00;14.25;;;;;7.10;73.37;102794.50;5095181;27;45408;-72
2021/12/19 10:39:16;;;;;;;;;14.25;13.75;;;;;7.09;73.55;102792.69;5095484;27;45475;-69
2021/12/19 10:41:43;;;;;;;;;18.75;16.75;;;;;7.23;73.12;102811.63;5093994;27;45240;-71
2021/12/19 10:45:29;;;;;;;;;17.75;17.00;;;;;7.25;72.45;102807.38;5079354;27;46219;-71
2021/12/19 10:47:19;;;;;;;;;19.75;16.75;;;;;7.31;72.43;102815.53;5094060;27;45363;-70
2021/12/19 10:49:46;;;;;;;;;20.50;17.50;;;;;7.38;72.34;102812.38;5094938;27;45456;-68
2021/12/19 10:52:13;;;;;;;;;24.75;20.00;;;;;7.13;72.59;102765.97;5082719;27;45501;-68
2021/12/19 10:54:59;;;;;;;;;20.00;18.00;;;;;7.36;72.30;102803.59;5075349;27;45557;-69
2021/12/19 10:57:31;;;;;;;;;24.00;21.00;;;;;7.35;72.18;102791.38;5073270;28;45352;-70
2021/12/19 10:59:57;;;;;;;;;28.50;20.75;;;;;7.40;72.16;102802.00;5070622;27;45586;-70
2021/12/19 11:02:38;;;;;;;;;24.25;18.25;;;;;7.36;72.43;102797.50;5070261;27;45761;-69
2021/12/19 11:05:04;;;;;;;;;22.00;19.00;;;;;7.28;72.60;102789.28;5069801;27;45374;-69
2021/12/19 11:07:30;;;;;;;;;25.25;20.75;;;;;7.23;72.33;102770.81;5067907;28;45635;-70
2021/12/19 11:09:56;;;;;;;;;21.00;18.25;;;;;7.39;71.38;102792.41;5075904;27;45527;-70
2021/12/19 11:12:22;;;;;;;;;23.75;18.75;;;;;7.23;71.52;102775.13;5091215;27;45274;-69
2021/12/19 11:14:49;;;;;;;;;22.25;17.75;;;;;7.22;71.08;102775.97;5090877;27;46362;-68
2021/12/19 11:17:23;;;;;;;;;24.25;18.00;;;;;7.21;71.18;102779.38;5090972;27;45540;-69
2021/12/19 11:19:51;;;;;;;;;20.50;16.25;;;;;7.17;70.36;102780.06;5090676;27;45512;-71
2021/12/19 11:22:23;;;;;;;;;19.75;17.75;;;;;7.09;70.80;102774.47;5090871;27;45439;-69
2021/12/19 11:25:00;;;;;;;;;23.00;19.50;;;;;7.01;71.38;102760.19;5105980;27;45701;-70
2021/12/19 11:27:28;;;;;;;;;22.75;19.50;;;;;6.99;70.65;102748.78;5089962;27;45540;-68
2021/12/19 11:29:56;;;;;;;;;26.00;21.50;;;;;6.98;71.02;102760.03;5109424;27;45516;-68
2021/12/19 11:32:29;;;;;;;;;25.00;20.75;;;;;6.93;71.04;102746.78;5111119;27;45702;-68
2021/12/19 11:35:05;;;;;;;;;25.75;21.50;;;;;6.92;71.04;102747.59;5110823;27;46003;-69
2021/12/19 11:37:39;;;;;;;;;29.75;24.75;;;;;6.92;71.23;102747.59;5095310;27;45969;-71
2021/12/19 11:40:07;;;;;;;;;27.75;26.00;;;;;6.99;71.43;102751.38;5090731;27;45429;-68
2021/12/19 11:42:36;;;;;;;;;29.75;23.50;;;;;7.01;71.43;102744.56;5090997;27;45377;-67
2021/12/19 11:45:42;;;;;;;;;25.00;23.25;;;;;7.02;71.09;102738.50;5079091;27;45852;-68
2021/12/19 11:48:15;;;;;;;;;25.00;23.50;;;;;7.10;70.95;102736.28;5077171;27;45661;-69
2021/12/19 11:50:53;;;;;;;;;27.00;22.75;;;;;7.22;70.91;102732.56;5076917;28;45343;-70
2021/12/19 11:53:30;;;;;;;;;34.00;27.00;;;;;7.19;70.80;102729.81;5076509;28;45622;-70
2021/12/19 11:56:09;;;;;;;;;35.00;31.00;;;;;7.22;71.70;102716.03;5076053;28;45494;-68
2021/12/19 11:58:46;;;;;;;;;28.00;23.00;;;;;7.34;71.28;102724.41;5076594;27;45362;-69
2021/12/19 12:01:18;;;;;;;;;24.75;21.00;;;;;7.43;70.84;102713.53;5076276;27;45295;-69
2021/12/19 12:03:44;;;;;;;;;18.50;17.50;;;;;7.52;70.47;102710.44;5099330;27;45444;-70
2021/12/19 12:06:22;;;;;;;;;25.25;22.25;;;;;7.61;70.38;102709.16;5096993;27;45878;-70
2021/12/19 12:09:06;;;;;;;;;34.75;25.75;;;;;7.70;69.11;102711.28;5099142;27;45299;-68
2021/12/19 12:11:33;;;;;;;;;28.25;23.25;;;;;7.71;68.95;102707.88;5097861;27;45289;-70
2021/12/19 12:14:27;;;;;;;;;31.50;22.00;;;;;7.65;69.31;102703.25;5096982;27;46037;-71
2021/12/19 12:17:07;;;;;;;;;25.75;21.50;;;;;7.74;69.56;102702.78;5083141;27;45469;-70
2021/12/19 12:19:51;;;;;;;;;30.75;25.25;;;;;7.73;69.16;102694.88;5058670;28;45221;-70
2021/12/19 12:25:31;;;;;;;;;27.25;21.75;;;;;7.79;69.11;102684.75;5056816;28;45379;-72
2021/12/19 12:28:04;;;;;;;;;32.50;21.25;;;;;7.77;69.13;102676.84;5055994;28;45554;-69
2021/12/19 12:30:29;;;;;;;;;27.25;22.50;;;;;7.63;68.93;102680.53;5056672;28;45611;-71
2021/12/19 12:32:58;;;;;;;;;28.50;20.75;;;;;7.60;69.24;102681.28;5089323;27;45361;-72
2021/12/19 12:35:25;;;;;;;;;27.50;21.50;;;;;7.59;69.32;102676.00;5060518;28;45505;-69
2021/12/19 12:37:51;;;;;;;;;24.75;21.50;;;;;7.46;69.68;102665.84;5059393;28;45562;-69
2021/12/19 12:40:43;;;;;;;;;26.25;22.00;;;;;7.44;70.16;102657.94;5067577;27;45579;-68
2021/12/19 12:43:14;;;;;;;;;26.50;22.25;;;;;7.41;69.86;102657.81;5098415;27;45608;-70
2021/12/19 12:45:55;;;;;;;;;24.50;22.00;;;;;7.33;70.02;102659.16;5100182;27;45498;-69
2021/12/19 12:48:50;;;;;;;;;22.00;21.25;;;;;7.35;70.75;102649.72;5099877;27;45426;-70
2021/12/19 12:51:38;;;;;;;;;27.25;21.00;;;;;7.42;70.43;102650.03;5056836;28;45479;-69
2021/12/19 12:54:08;;;;;;;;;23.50;20.00;;;;;7.31;70.15;102599.16;5059847;28;45323;-70
2021/12/19 12:56:41;;;;;;;;;20.50;19.00;;;;;7.40;69.96;102609.09;5061136;28;45478;-72